Terminal Aerodrome Forecast
Issued by NWS

Home | Current Version | Previous Version | Text Only | Print | Product List | Glossary On
Versions: 1 2 3 4 5 6 7 8 9 10 11 12 13 14 15 16 17 18 19 20 21 22 23 24 25 26 27 28 29 30 31 32 33 34
000
FTPA31 PHFO 300800 AAA
TAFPPG
TAF AMD
NSTU 300800Z 3008/3106 12016KT P6SM -SHRA SCT015 BKN035 OVC070
      TEMPO 3008/3012 12018G25KT 3SM SHRA BR BKN015=

USA.gov is the U.S. government's official web portal to all federal, state and local government web resources and services.